Terminal Aerodrome Forecast
Issued by NWS

Home | Current Version | Previous Version | Text Only | Print | Product List | Glossary On
Versions: 1 2 3 4 5 6 7 8 9 10 11 12 13 14
000
FTUS42 TJSJ 250520
TAFNCM
TAF
TNCM 250520Z 2506/2606 07006KT P6SM VCSH FEW017 SCT035
      TEMPO 2506/2508 -SHRA SCT017 BKN040
     FM251200 09012KT P6SM VCSH SCT018
     FM252300 10007KT P6SM FEW023=

USA.gov is the U.S. government's official web portal to all federal, state and local government web resources and services.